Time;durP1;ratioP1;P1;durP2;ratioP2;P2;SDS_P1;SDS_P2;PMS_P1;PMS_P2;Temp;Humidity;BMP_temperature;BMP_pressure;BME280_temperature;BME280_humidity;BME280_pressure;Samples;Min_cycle;Max_cycle;Signal;HPM_P1;HPM_P2
2024/01/01 00:02:20;;;;;;;40.38;25.25;;;;;;;;;;5033562;28;20044;-71
2024/01/01 00:04:46;;;;;;;43.33;25.95;;;;;;;;;;5031941;28;20044;-71
2024/01/01 00:07:12;;;;;;;46.22;25.38;;;;;;;;;;5015067;28;20124;-71
2024/01/01 00:09:38;;;;;;;47.47;28.38;;;;;;;;;;5014557;28;20045;-71
2024/01/01 00:12:04;;;;;;;40.30;24.27;;;;;;;;;;5032621;28;20056;-71
2024/01/01 00:14:30;;;;;;;46.90;28.92;;;;;;;;;;5032306;28;20045;-70
2024/01/01 00:16:56;;;;;;;46.88;25.35;;;;;;;;;;5032006;28;20038;-70
2024/01/01 00:19:22;;;;;;;41.33;25.40;;;;;;;;;;5031424;28;20025;-71
2024/01/01 00:21:48;;;;;;;43.38;25.83;;;;;;;;;;5014239;28;20045;-71
2024/01/01 00:24:14;;;;;;;47.60;29.85;;;;;;;;;;5027206;28;20029;-71
2024/01/01 00:26:40;;;;;;;42.22;25.83;;;;;;;;;;5031132;28;20430;-71
2024/01/01 00:29:07;;;;;;;39.20;22.92;;;;;;;;;;5014886;28;20043;-71
2024/01/01 00:31:33;;;;;;;40.67;23.35;;;;;;;;;;5031770;28;20087;-71
2024/01/01 00:33:59;;;;;;;42.55;24.75;;;;;;;;;;5031298;28;20483;-71
2024/01/01 00:36:25;;;;;;;38.78;24.02;;;;;;;;;;5029426;28;20122;-71
2024/01/01 00:38:51;;;;;;;41.08;21.90;;;;;;;;;;5013601;28;20049;-71
2024/01/01 00:41:17;;;;;;;42.22;23.85;;;;;;;;;;5026873;28;20517;-71
2024/01/01 00:43:43;;;;;;;40.75;19.65;;;;;;;;;;5030500;28;20037;-71
2024/01/01 00:46:10;;;;;;;37.25;21.42;;;;;;;;;;5031699;28;20033;-71
2024/01/01 00:48:36;;;;;;;38.35;21.77;;;;;;;;;;5031598;28;20045;-71
2024/01/01 00:51:02;;;;;;;30.38;18.52;;;;;;;;;;5031637;28;20077;-71
2024/01/01 00:53:28;;;;;;;34.33;18.27;;;;;;;;;;5031858;28;20044;-71
2024/01/01 00:55:54;;;;;;;32.10;19.80;;;;;;;;;;5009063;28;20041;-71
2024/01/01 00:58:20;;;;;;;36.60;19.50;;;;;;;;;;5014295;28;20502;-71
2024/01/01 01:00:46;;;;;;;42.83;23.83;;;;;;;;;;5013107;28;20110;-72
2024/01/01 01:03:12;;;;;;;34.20;19.83;;;;;;;;;;5031148;28;20044;-71
2024/01/01 01:05:38;;;;;;;43.92;23.98;;;;;;;;;;5028864;28;20048;-71
2024/01/01 01:08:04;;;;;;;50.85;26.83;;;;;;;;;;5031521;28;20041;-71
2024/01/01 01:10:30;;;;;;;54.95;29.27;;;;;;;;;;5030884;28;20394;-71
2024/01/01 01:12:56;;;;;;;53.97;26.60;;;;;;;;;;5031605;28;20041;-71
2024/01/01 01:15:23;;;;;;;55.83;31.48;;;;;;;;;;5031384;28;20073;-71
2024/01/01 01:17:49;;;;;;;52.33;28.42;;;;;;;;;;5013420;28;20052;-72
2024/01/01 01:20:16;;;;;;;46.88;25.50;;;;;;;;;;5030063;28;20449;-71
2024/01/01 01:22:41;;;;;;;39.17;22.65;;;;;;;;;;5030755;28;20467;-71
2024/01/01 01:25:08;;;;;;;38.33;20.80;;;;;;;;;;5030571;28;20048;-71
2024/01/01 01:27:34;;;;;;;42.90;22.42;;;;;;;;;;5029036;28;20052;-71
2024/01/01 01:30:00;;;;;;;36.88;19.88;;;;;;;;;;5012733;28;20045;-71
2024/01/01 01:32:26;;;;;;;35.38;20.20;;;;;;;;;;5029973;28;20495;-71
2024/01/01 01:34:52;;;;;;;34.55;19.73;;;;;;;;;;5029520;28;20037;-71
2024/01/01 01:37:18;;;;;;;35.45;18.95;;;;;;;;;;5031453;28;20491;-71
2024/01/01 01:39:45;;;;;;;35.60;18.52;;;;;;;;;;5030946;28;20060;-71
2024/01/01 01:42:11;;;;;;;39.78;20.27;;;;;;;;;;5030399;28;20053;-71
2024/01/01 01:44:37;;;;;;;35.15;18.83;;;;;;;;;;5023401;28;20122;-71
2024/01/01 01:47:04;;;;;;;32.28;17.52;;;;;;;;;;5012846;28;20041;-71
2024/01/01 01:49:31;;;;;;;37.38;18.73;;;;;;;;;;5030053;28;20048;-71
2024/01/01 01:51:58;;;;;;;34.20;17.42;;;;;;;;;;5030180;28;20399;-71
2024/01/01 01:54:24;;;;;;;33.40;18.17;;;;;;;;;;5030121;28;20033;-71
2024/01/01 01:56:52;;;;;;;32.55;17.63;;;;;;;;;;5030579;28;20499;-71
2024/01/01 01:59:18;;;;;;;32.08;17.67;;;;;;;;;;5030772;28;20037;-71
2024/01/01 02:01:44;;;;;;;30.25;14.73;;;;;;;;;;5030251;28;20499;-71
2024/01/01 02:04:10;;;;;;;34.85;16.42;;;;;;;;;;5029034;28;20030;-71
2024/01/01 02:06:36;;;;;;;31.85;16.08;;;;;;;;;;5030026;28;20049;-71
2024/01/01 02:09:02;;;;;;;30.55;16.40;;;;;;;;;;5030499;28;20096;-71
2024/01/01 02:11:28;;;;;;;29.30;15.75;;;;;;;;;;5030395;28;20044;-71
2024/01/01 02:14:06;;;;;;;26.95;15.43;;;;;;;;;;5030922;28;20507;-71
2024/01/01 02:16:32;;;;;;;25.63;14.15;;;;;;;;;;5029361;28;20042;-71
2024/01/01 02:18:58;;;;;;;23.30;12.43;;;;;;;;;;5033299;28;20041;-71
2024/01/01 02:21:24;;;;;;;21.80;10.88;;;;;;;;;;5025964;28;20037;-71
2024/01/01 02:23:50;;;;;;;20.70;10.20;;;;;;;;;;5008112;28;20049;-72
2024/01/01 02:26:16;;;;;;;15.65;9.15;;;;;;;;;;5028466;28;20455;-71
2024/01/01 02:28:42;;;;;;;19.40;9.82;;;;;;;;;;5027948;28;20042;-71
2024/01/01 02:31:08;;;;;;;21.17;10.10;;;;;;;;;;5032903;28;20072;-71
2024/01/01 02:33:34;;;;;;;22.23;10.00;;;;;;;;;;5029885;28;20128;-71
2024/01/01 02:36:00;;;;;;;19.70;9.52;;;;;;;;;;5015899;28;20041;-71
2024/01/01 02:38:26;;;;;;;16.45;9.38;;;;;;;;;;5034005;28;20112;-71
2024/01/01 02:40:52;;;;;;;16.38;7.88;;;;;;;;;;5033152;28;20490;-71
2024/01/01 02:43:18;;;;;;;16.95;7.78;;;;;;;;;;5033924;28;20034;-72
2024/01/01 02:45:44;;;;;;;13.15;6.93;;;;;;;;;;5030130;28;20034;-72
2024/01/01 02:48:10;;;;;;;16.73;6.10;;;;;;;;;;5033523;28;20041;-71
2024/01/01 02:50:36;;;;;;;10.25;5.32;;;;;;;;;;5034004;28;20462;-71
2024/01/01 02:53:02;;;;;;;11.10;4.82;;;;;;;;;;5033131;28;20491;-71
2024/01/01 02:55:28;;;;;;;10.90;3.58;;;;;;;;;;5033894;28;20091;-71
2024/01/01 02:57:54;;;;;;;8.02;3.60;;;;;;;;;;5033094;28;20392;-71
2024/01/01 03:00:20;;;;;;;10.82;3.35;;;;;;;;;;5031517;28;20037;-71
2024/01/01 03:02:50;;;;;;;7.55;2.83;;;;;;;;;;5033930;28;20034;-71
2024/01/01 03:05:18;;;;;;;7.72;3.10;;;;;;;;;;5031608;28;20057;-71
2024/01/01 03:07:44;;;;;;;5.50;2.70;;;;;;;;;;5033226;28;20549;-72
2024/01/01 03:10:10;;;;;;;9.32;2.85;;;;;;;;;;5032252;28;20460;-71
2024/01/01 03:12:35;;;;;;;6.93;2.55;;;;;;;;;;5033639;28;20150;-71
2024/01/01 03:15:03;;;;;;;8.13;2.53;;;;;;;;;;5033066;28;20077;-71
2024/01/01 03:17:29;;;;;;;9.05;2.63;;;;;;;;;;5033345;28;20041;-71
2024/01/01 03:19:55;;;;;;;13.55;3.65;;;;;;;;;;5033494;28;20041;-71
2024/01/01 03:22:21;;;;;;;8.10;2.53;;;;;;;;;;5033020;28;20491;-71
2024/01/01 03:24:47;;;;;;;5.18;2.33;;;;;;;;;;5016251;28;20049;-71
2024/01/01 03:27:13;;;;;;;6.13;2.42;;;;;;;;;;5028706;28;20038;-71
2024/01/01 03:29:39;;;;;;;6.75;2.63;;;;;;;;;;5029794;28;20415;-71
2024/01/01 03:32:05;;;;;;;4.70;1.85;;;;;;;;;;5031955;28;20099;-71
2024/01/01 03:34:33;;;;;;;7.05;2.58;;;;;;;;;;5015835;28;20047;-71
2024/01/01 03:36:59;;;;;;;7.05;2.47;;;;;;;;;;5032852;28;20045;-71
2024/01/01 03:39:25;;;;;;;8.13;2.47;;;;;;;;;;5031045;28;20029;-71
2024/01/01 03:41:51;;;;;;;6.78;2.50;;;;;;;;;;5023185;28;20045;-71
2024/01/01 03:44:17;;;;;;;6.28;2.72;;;;;;;;;;5033321;28;20064;-71
2024/01/01 03:46:43;;;;;;;4.28;2.20;;;;;;;;;;5014480;28;20072;-71
2024/01/01 03:49:09;;;;;;;8.57;2.15;;;;;;;;;;5030099;28;20048;-71
2024/01/01 03:51:35;;;;;;;8.25;2.08;;;;;;;;;;5032692;28;20034;-71
2024/01/01 03:54:01;;;;;;;9.45;3.05;;;;;;;;;;5032795;28;20277;-71
2024/01/01 03:56:27;;;;;;;7.00;2.63;;;;;;;;;;5009164;28;20037;-71
2024/01/01 03:58:53;;;;;;;6.15;2.28;;;;;;;;;;5031533;28;20120;-71
2024/01/01 04:01:21;;;;;;;10.32;2.40;;;;;;;;;;5032067;28;20033;-71
2024/01/01 04:03:47;;;;;;;6.88;2.30;;;;;;;;;;5025537;28;20055;-71
2024/01/01 04:06:13;;;;;;;7.70;2.13;;;;;;;;;;5031186;28;20045;-71
2024/01/01 04:08:39;;;;;;;6.95;2.30;;;;;;;;;;5031367;28;20048;-71
2024/01/01 04:11:05;;;;;;;6.13;2.05;;;;;;;;;;5032372;28;20041;-71
2024/01/01 04:13:31;;;;;;;4.38;1.95;;;;;;;;;;5031784;28;20045;-71
2024/01/01 04:15:57;;;;;;;6.20;2.00;;;;;;;;;;5031443;28;20085;-71
2024/01/01 04:18:23;;;;;;;3.67;2.08;;;;;;;;;;5031683;28;20103;-71
2024/01/01 04:20:49;;;;;;;7.63;2.22;;;;;;;;;;5032014;28;20041;-71
2024/01/01 04:23:16;;;;;;;5.45;2.20;;;;;;;;;;5031955;28;20402;-71
2024/01/01 04:25:42;;;;;;;8.98;2.50;;;;;;;;;;5014669;28;20052;-71
2024/01/01 04:28:08;;;;;;;5.88;1.92;;;;;;;;;;5032191;28;20041;-71
2024/01/01 04:30:34;;;;;;;4.75;2.10;;;;;;;;;;5013937;28;20046;-71
2024/01/01 04:32:59;;;;;;;5.07;2.38;;;;;;;;;;5031330;28;20439;-71
2024/01/01 04:35:25;;;;;;;6.90;2.25;;;;;;;;;;5032338;28;20041;-71
2024/01/01 04:37:51;;;;;;;7.32;2.30;;;;;;;;;;5031697;28;20105;-71
2024/01/01 04:40:19;;;;;;;10.35;2.10;;;;;;;;;;5029887;28;20036;-71
2024/01/01 04:42:48;;;;;;;6.88;2.40;;;;;;;;;;5031415;28;20083;-71
2024/01/01 04:45:14;;;;;;;8.18;2.30;;;;;;;;;;5032127;28;20094;-71
2024/01/01 04:47:40;;;;;;;8.73;2.70;;;;;;;;;;5032216;28;20116;-71
2024/01/01 04:50:06;;;;;;;8.10;2.53;;;;;;;;;;5029580;28;20523;-70
2024/01/01 04:52:32;;;;;;;7.50;2.60;;;;;;;;;;5031483;28;20064;-70
2024/01/01 04:54:58;;;;;;;8.00;2.75;;;;;;;;;;5030143;28;20484;-71
2024/01/01 04:57:25;;;;;;;8.18;2.60;;;;;;;;;;5011170;28;20037;-71
2024/01/01 04:59:51;;;;;;;9.48;2.70;;;;;;;;;;5031461;28;20095;-71
2024/01/01 05:02:17;;;;;;;9.10;2.40;;;;;;;;;;5025001;28;20037;-71
2024/01/01 05:04:43;;;;;;;8.60;2.20;;;;;;;;;;5026935;28;20060;-70
2024/01/01 05:07:09;;;;;;;9.13;2.50;;;;;;;;;;5026691;28;20045;-70
2024/01/01 05:09:34;;;;;;;6.68;2.25;;;;;;;;;;5031065;28;20071;-70
2024/01/01 05:12:00;;;;;;;9.45;2.60;;;;;;;;;;5029546;28;20091;-70
2024/01/01 05:14:26;;;;;;;13.57;2.42;;;;;;;;;;5031217;28;20056;-70
2024/01/01 05:16:52;;;;;;;13.55;2.97;;;;;;;;;;5026792;28;20041;-70
2024/01/01 05:19:18;;;;;;;12.07;2.97;;;;;;;;;;5031106;28;20037;-70
2024/01/01 05:21:44;;;;;;;6.57;2.03;;;;;;;;;;5041802;22;20069;-72
2024/01/01 05:24:10;;;;;;;11.80;2.88;;;;;;;;;;5029083;28;20029;-72
2024/01/01 05:26:36;;;;;;;13.77;2.80;;;;;;;;;;5031723;28;20081;-72
2024/01/01 05:29:02;;;;;;;9.40;2.40;;;;;;;;;;5029670;28;20041;-72
2024/01/01 05:31:29;;;;;;;7.22;2.35;;;;;;;;;;5012039;28;20095;-72
2024/01/01 05:33:55;;;;;;;9.07;2.70;;;;;;;;;;4994560;28;20053;-72
2024/01/01 05:36:21;;;;;;;13.55;3.13;;;;;;;;;;5011032;28;20522;-72
2024/01/01 05:38:47;;;;;;;13.55;2.42;;;;;;;;;;5009185;28;20064;-72
2024/01/01 05:41:13;;;;;;;14.02;3.17;;;;;;;;;;4993912;28;20038;-72
2024/01/01 05:43:39;;;;;;;8.15;2.38;;;;;;;;;;5010900;28;20488;-72
2024/01/01 05:46:06;;;;;;;11.27;3.45;;;;;;;;;;5010821;28;20042;-72
2024/01/01 05:48:32;;;;;;;11.00;3.05;;;;;;;;;;5011099;28;20054;-72
2024/01/01 05:50:57;;;;;;;9.32;2.75;;;;;;;;;;5010344;28;20136;-72
2024/01/01 05:53:23;;;;;;;9.13;2.60;;;;;;;;;;5010928;28;20050;-72
2024/01/01 05:55:49;;;;;;;13.48;2.95;;;;;;;;;;5011482;28;20045;-72
2024/01/01 05:58:16;;;;;;;12.73;2.92;;;;;;;;;;5011509;28;20057;-72
2024/01/01 06:00:41;;;;;;;16.40;3.40;;;;;;;;;;5009977;28;20057;-72
2024/01/01 06:03:07;;;;;;;8.15;2.85;;;;;;;;;;5011228;28;20124;-72
2024/01/01 06:05:33;;;;;;;15.95;3.47;;;;;;;;;;5010971;28;20068;-72
2024/01/01 06:08:03;;;;;;;11.00;3.03;;;;;;;;;;5003181;28;20042;-72
2024/01/01 06:10:29;;;;;;;12.25;2.88;;;;;;;;;;5006834;28;20042;-73
2024/01/01 06:12:56;;;;;;;8.70;2.40;;;;;;;;;;5010019;28;20050;-73
2024/01/01 06:15:23;;;;;;;12.63;3.30;;;;;;;;;;5008927;28;20562;-73
2024/01/01 06:17:49;;;;;;;9.85;3.10;;;;;;;;;;4988353;28;20060;-73
2024/01/01 06:20:15;;;;;;;10.80;2.95;;;;;;;;;;5009807;28;20029;-73
2024/01/01 06:22:43;;;;;;;10.32;3.28;;;;;;;;;;5011194;28;20041;-73
2024/01/01 06:25:10;;;;;;;11.27;2.78;;;;;;;;;;5011470;28;20045;-73
2024/01/01 06:27:36;;;;;;;9.02;2.55;;;;;;;;;;5010417;28;20092;-73
2024/01/01 06:30:03;;;;;;;11.23;2.92;;;;;;;;;;5010109;28;20042;-73
2024/01/01 06:32:29;;;;;;;9.43;2.28;;;;;;;;;;5010873;28;20121;-72
2024/01/01 06:34:55;;;;;;;9.73;2.88;;;;;;;;;;5008876;28;20133;-72
2024/01/01 06:37:21;;;;;;;8.43;3.03;;;;;;;;;;5010912;28;20515;-72
2024/01/01 06:39:46;;;;;;;9.48;2.63;;;;;;;;;;5009577;28;20080;-72
2024/01/01 06:42:12;;;;;;;11.73;2.60;;;;;;;;;;5010806;28;20034;-72
2024/01/01 06:44:38;;;;;;;8.90;2.33;;;;;;;;;;5010460;28;20500;-72
2024/01/01 06:47:04;;;;;;;11.93;3.38;;;;;;;;;;5010545;28;20045;-72
2024/01/01 06:49:30;;;;;;;14.88;2.80;;;;;;;;;;5009955;28;20038;-72
2024/01/01 06:51:56;;;;;;;11.82;3.10;;;;;;;;;;4992872;28;20405;-72
2024/01/01 06:54:22;;;;;;;10.25;2.38;;;;;;;;;;5010614;28;20121;-72
2024/01/01 06:56:49;;;;;;;8.35;3.30;;;;;;;;;;5011186;28;20113;-72
2024/01/01 06:59:16;;;;;;;11.35;3.33;;;;;;;;;;5010355;28;20080;-72
2024/01/01 07:01:43;;;;;;;11.73;3.08;;;;;;;;;;5009972;28;20121;-72
2024/01/01 07:04:09;;;;;;;9.25;2.50;;;;;;;;;;5011802;28;20120;-72
2024/01/01 07:06:35;;;;;;;12.20;2.65;;;;;;;;;;5014565;28;20045;-72
2024/01/01 07:09:01;;;;;;;14.95;3.35;;;;;;;;;;5008796;28;20076;-72
2024/01/01 07:11:28;;;;;;;12.13;3.17;;;;;;;;;;5009358;28;20132;-72
2024/01/01 07:13:54;;;;;;;9.15;2.80;;;;;;;;;;5012178;28;20050;-72
2024/01/01 07:16:20;;;;;;;13.75;2.65;;;;;;;;;;5014093;28;20385;-72
2024/01/01 07:18:46;;;;;;;9.27;2.50;;;;;;;;;;5011798;28;20112;-72
2024/01/01 07:21:12;;;;;;;9.18;2.50;;;;;;;;;;5012243;28;20037;-72
2024/01/01 07:23:38;;;;;;;11.15;2.60;;;;;;;;;;5013684;28;20072;-72
2024/01/01 07:26:05;;;;;;;9.85;3.00;;;;;;;;;;5012461;28;20038;-72
2024/01/01 07:28:31;;;;;;;10.65;3.80;;;;;;;;;;5009404;28;20046;-72
2024/01/01 07:30:58;;;;;;;11.40;3.03;;;;;;;;;;5009574;28;20049;-72
2024/01/01 07:33:24;;;;;;;14.50;2.63;;;;;;;;;;4994558;28;20487;-72
2024/01/01 07:35:50;;;;;;;9.40;2.55;;;;;;;;;;5013196;28;20049;-72
2024/01/01 07:38:16;;;;;;;11.63;3.00;;;;;;;;;;5013285;28;20040;-72
2024/01/01 07:40:42;;;;;;;8.70;2.10;;;;;;;;;;5011506;28;20046;-72
2024/01/01 07:43:08;;;;;;;7.90;2.50;;;;;;;;;;5011017;28;20040;-72
2024/01/01 07:45:34;;;;;;;16.40;3.10;;;;;;;;;;5012154;28;20121;-72
2024/01/01 07:48:00;;;;;;;11.60;3.03;;;;;;;;;;5005797;28;20100;-72
2024/01/01 07:50:26;;;;;;;7.75;2.72;;;;;;;;;;5011942;28;20052;-72
2024/01/01 07:52:52;;;;;;;13.85;2.97;;;;;;;;;;4995251;28;20459;-72
2024/01/01 07:55:18;;;;;;;9.10;2.67;;;;;;;;;;5011110;28;20038;-72
2024/01/01 07:57:46;;;;;;;15.57;3.65;;;;;;;;;;4988021;28;20124;-72
2024/01/01 08:00:13;;;;;;;8.27;2.90;;;;;;;;;;5012260;28;20053;-72
2024/01/01 08:02:39;;;;;;;9.50;3.60;;;;;;;;;;5007853;28;20041;-72
2024/01/01 08:05:05;;;;;;;9.75;3.53;;;;;;;;;;5012908;28;20042;-72
2024/01/01 08:07:31;;;;;;;10.70;3.17;;;;;;;;;;5010387;28;20104;-72
2024/01/01 08:09:57;;;;;;;9.75;3.10;;;;;;;;;;5010925;28;20040;-72
2024/01/01 08:12:23;;;;;;;12.63;3.83;;;;;;;;;;5011998;28;20042;-72
2024/01/01 08:14:49;;;;;;;12.20;3.42;;;;;;;;;;5011267;28;20053;-72
2024/01/01 08:17:15;;;;;;;15.60;3.40;;;;;;;;;;5012691;28;20586;-72
2024/01/01 08:19:41;;;;;;;11.23;3.22;;;;;;;;;;5012730;28;20092;-72
2024/01/01 08:22:07;;;;;;;9.38;2.60;;;;;;;;;;5011859;28;20527;-72
2024/01/01 08:24:33;;;;;;;10.70;3.40;;;;;;;;;;5012803;28;20034;-72
2024/01/01 08:26:59;;;;;;;8.30;3.25;;;;;;;;;;5011691;28;20648;-72
2024/01/01 08:29:25;;;;;;;11.35;3.70;;;;;;;;;;5011955;28;20040;-72
2024/01/01 08:31:51;;;;;;;9.55;3.22;;;;;;;;;;4993522;28;20116;-72
2024/01/01 08:34:17;;;;;;;10.85;3.28;;;;;;;;;;5012537;28;20040;-72
2024/01/01 08:36:43;;;;;;;8.65;3.28;;;;;;;;;;5012381;28;20104;-72
2024/01/01 08:39:09;;;;;;;9.13;2.80;;;;;;;;;;5012571;28;20084;-72
2024/01/01 08:41:41;;;;;;;13.30;3.55;;;;;;;;;;5011516;28;20092;-72
2024/01/01 08:44:07;;;;;;;10.80;3.15;;;;;;;;;;5011353;28;20034;-72
2024/01/01 08:46:33;;;;;;;9.95;2.78;;;;;;;;;;5012310;28;20096;-72
2024/01/01 08:48:59;;;;;;;6.35;2.67;;;;;;;;;;5007562;28;20049;-72
2024/01/01 08:51:25;;;;;;;8.90;2.78;;;;;;;;;;5011795;28;20045;-72
2024/01/01 08:53:51;;;;;;;9.80;3.08;;;;;;;;;;5012233;28;20450;-72
2024/01/01 08:56:17;;;;;;;11.55;2.85;;;;;;;;;;5011632;28;20125;-72
2024/01/01 08:58:43;;;;;;;7.10;2.88;;;;;;;;;;5011258;28;20515;-72
2024/01/01 09:01:09;;;;;;;8.55;2.65;;;;;;;;;;5011079;28;20069;-72
2024/01/01 09:03:37;;;;;;;12.02;2.80;;;;;;;;;;5012124;28;20085;-72
2024/01/01 09:06:04;;;;;;;6.75;2.55;;;;;;;;;;5010961;28;20038;-72
2024/01/01 09:08:30;;;;;;;11.27;3.47;;;;;;;;;;5012077;28;20045;-72
2024/01/01 09:10:56;;;;;;;8.15;2.97;;;;;;;;;;5010751;28;20042;-72
2024/01/01 09:13:22;;;;;;;10.88;3.22;;;;;;;;;;5011447;28;20159;-72
2024/01/01 09:15:48;;;;;;;10.48;3.03;;;;;;;;;;5010756;28;20069;-72
2024/01/01 09:18:15;;;;;;;9.52;2.90;;;;;;;;;;5009644;28;20049;-72
2024/01/01 09:20:41;;;;;;;7.30;2.60;;;;;;;;;;5010740;28;20045;-72
2024/01/01 09:23:07;;;;;;;8.00;2.50;;;;;;;;;;5011716;28;20042;-72
2024/01/01 09:25:40;;;;;;;8.93;3.40;;;;;;;;;;5007445;28;20408;-72
2024/01/01 09:28:06;;;;;;;7.85;3.45;;;;;;;;;;5009786;28;20037;-72
2024/01/01 09:30:32;;;;;;;10.77;3.58;;;;;;;;;;5010746;28;20155;-72
2024/01/01 09:32:58;;;;;;;9.82;2.78;;;;;;;;;;4994249;28;20049;-72
2024/01/01 09:35:24;;;;;;;13.75;3.50;;;;;;;;;;5012178;28;20045;-72
2024/01/01 09:37:52;;;;;;;8.80;2.78;;;;;;;;;;5011947;28;20052;-72
2024/01/01 09:40:20;;;;;;;8.77;2.70;;;;;;;;;;5011197;28;20508;-72
2024/01/01 09:42:47;;;;;;;9.88;2.85;;;;;;;;;;5011953;28;20483;-72
2024/01/01 09:45:13;;;;;;;8.38;3.15;;;;;;;;;;5012050;28;20100;-72
2024/01/01 09:47:43;;;;;;;7.93;2.95;;;;;;;;;;5010093;28;20225;-72
2024/01/01 09:50:09;;;;;;;10.82;2.97;;;;;;;;;;5011338;28;20049;-72
2024/01/01 09:52:36;;;;;;;9.45;2.88;;;;;;;;;;5011244;28;20044;-72
2024/01/01 09:55:02;;;;;;;10.27;2.95;;;;;;;;;;4993767;28;20186;-72
2024/01/01 09:57:28;;;;;;;9.75;3.00;;;;;;;;;;5011738;28;20040;-72
2024/01/01 09:59:55;;;;;;;11.98;3.83;;;;;;;;;;5011521;28;20513;-72
2024/01/01 10:02:24;;;;;;;7.40;3.33;;;;;;;;;;5011959;28;20042;-72
2024/01/01 10:04:50;;;;;;;10.02;3.30;;;;;;;;;;5005150;28;20046;-72
2024/01/01 10:07:34;;;;;;;8.32;3.10;;;;;;;;;;5011448;28;20042;-72
2024/01/01 10:10:00;;;;;;;10.98;3.15;;;;;;;;;;5006448;28;20393;-72
2024/01/01 10:12:26;;;;;;;9.90;3.33;;;;;;;;;;5010299;28;20044;-72
2024/01/01 10:14:53;;;;;;;10.32;3.50;;;;;;;;;;5011780;28;20084;-72
2024/01/01 10:17:19;;;;;;;10.77;2.80;;;;;;;;;;5010842;28;20038;-72
2024/01/01 10:19:49;;;;;;;12.32;2.97;;;;;;;;;;4992821;28;20068;-72
2024/01/01 10:22:18;;;;;;;9.40;3.50;;;;;;;;;;4992189;28;20049;-72
2024/01/01 10:24:44;;;;;;;7.80;2.92;;;;;;;;;;5005629;28;20076;-72
2024/01/01 10:27:10;;;;;;;8.93;2.90;;;;;;;;;;5008201;28;20044;-72
2024/01/01 10:29:37;;;;;;;5.85;2.47;;;;;;;;;;5006769;28;20111;-72
2024/01/01 10:32:04;;;;;;;9.65;3.35;;;;;;;;;;5007570;28;20030;-72
2024/01/01 10:34:32;;;;;;;5.28;2.20;;;;;;;;;;5008104;28;20519;-72
2024/01/01 10:36:58;;;;;;;13.07;3.22;;;;;;;;;;5011887;28;20049;-72
2024/01/01 10:39:24;;;;;;;10.07;3.10;;;;;;;;;;5014983;28;20376;-72
2024/01/01 10:41:51;;;;;;;9.75;3.75;;;;;;;;;;5013990;28;20403;-72
2024/01/01 10:44:17;;;;;;;10.40;3.38;;;;;;;;;;5013283;28;20026;-72
2024/01/01 10:46:47;;;;;;;7.90;3.05;;;;;;;;;;5014614;28;20121;-72
2024/01/01 10:49:15;;;;;;;7.60;2.30;;;;;;;;;;5014149;28;20046;-72
2024/01/01 10:52:00;;;;;;;9.32;2.80;;;;;;;;;;5013943;28;20046;-72
2024/01/01 10:54:43;;;;;;;8.60;1.90;;;;;;;;;;4993196;28;20101;-72
2024/01/01 10:57:20;;;;;;;6.95;2.17;;;;;;;;;;5013457;28;20096;-72
2024/01/01 10:59:50;;;;;;;10.63;2.72;;;;;;;;;;5012241;28;20045;-72
2024/01/01 11:02:16;;;;;;;7.80;2.30;;;;;;;;;;5013015;28;20037;-72
2024/01/01 11:04:42;;;;;;;8.88;2.40;;;;;;;;;;5014479;28;20084;-72
2024/01/01 11:07:08;;;;;;;7.93;2.30;;;;;;;;;;5013552;28;20029;-72
2024/01/01 11:09:34;;;;;;;6.95;2.50;;;;;;;;;;5013824;28;20462;-72
2024/01/01 11:12:02;;;;;;;6.47;1.92;;;;;;;;;;5013286;28;20507;-72
2024/01/01 11:14:29;;;;;;;6.40;2.60;;;;;;;;;;5013099;28;20061;-72
2024/01/01 11:16:57;;;;;;;8.38;2.42;;;;;;;;;;5008434;28;20539;-72
2024/01/01 11:19:35;;;;;;;5.93;2.22;;;;;;;;;;5013239;28;20044;-72
2024/01/01 11:22:31;;;;;;;5.15;2.10;;;;;;;;;;5036150;23;20496;-70
2024/01/01 11:24:59;;;;;;;10.68;2.08;;;;;;;;;;4999107;28;20060;-72
2024/01/01 11:27:31;;;;;;;9.77;2.40;;;;;;;;;;5016560;28;20727;-72
2024/01/01 11:32:30;;;;;;;7.78;2.13;;;;;;;;;;5031811;28;20452;-67
2024/01/01 11:35:03;;;;;;;6.50;1.80;;;;;;;;;;5015737;28;20413;-68
2024/01/01 11:37:30;;;;;;;6.70;1.67;;;;;;;;;;5015784;28;20124;-68
2024/01/01 11:40:00;;;;;;;6.20;1.63;;;;;;;;;;5015906;28;20099;-68
2024/01/01 11:42:27;;;;;;;5.43;1.65;;;;;;;;;;5016031;28;20072;-68
2024/01/01 11:45:10;;;;;;;5.03;1.73;;;;;;;;;;5016046;28;20064;-68
2024/01/01 11:47:36;;;;;;;8.25;1.95;;;;;;;;;;5015970;28;20049;-68
2024/01/01 11:50:03;;;;;;;8.15;1.67;;;;;;;;;;4998530;28;20072;-67
2024/01/01 11:52:29;;;;;;;6.85;1.95;;;;;;;;;;5015883;28;20524;-68
2024/01/01 11:54:55;;;;;;;5.97;1.95;;;;;;;;;;5015749;28;20041;-68
2024/01/01 11:57:21;;;;;;;5.57;1.85;;;;;;;;;;5015557;28;20049;-67
2024/01/01 11:59:49;;;;;;;10.95;2.80;;;;;;;;;;5015832;28;20124;-68
2024/01/01 12:02:15;;;;;;;5.22;1.58;;;;;;;;;;5014863;28;20049;-67
2024/01/01 12:04:41;;;;;;;7.00;2.10;;;;;;;;;;5015402;28;20044;-67
2024/01/01 12:07:07;;;;;;;8.88;1.92;;;;;;;;;;5015686;28;20041;-68
2024/01/01 12:09:33;;;;;;;9.15;3.72;;;;;;;;;;5033292;28;20041;-67
2024/01/01 12:12:06;;;;;;;6.40;2.08;;;;;;;;;;5015514;28;20354;-68
2024/01/01 12:14:32;;;;;;;10.35;2.50;;;;;;;;;;5015146;28;20038;-68
2024/01/01 12:16:58;;;;;;;6.78;2.10;;;;;;;;;;5033388;28;20056;-67
2024/01/01 12:19:24;;;;;;;10.02;2.33;;;;;;;;;;5014561;28;20049;-68
2024/01/01 12:21:52;;;;;;;10.07;3.53;;;;;;;;;;5032578;28;20041;-68
2024/01/01 12:24:19;;;;;;;18.48;8.02;;;;;;;;;;5015597;28;20436;-67
2024/01/01 12:26:48;;;;;;;7.82;3.03;;;;;;;;;;5014862;28;20146;-67
2024/01/01 12:29:20;;;;;;;6.53;1.92;;;;;;;;;;5032905;28;20080;-67
2024/01/01 12:31:48;;;;;;;7.63;1.60;;;;;;;;;;5015309;28;20489;-67
2024/01/01 12:34:15;;;;;;;7.43;1.63;;;;;;;;;;4998830;28;20042;-68
2024/01/01 12:36:41;;;;;;;8.00;1.90;;;;;;;;;;5015535;28;20042;-68
2024/01/01 12:39:07;;;;;;;9.13;1.67;;;;;;;;;;5032858;28;20048;-68
2024/01/01 12:41:33;;;;;;;5.45;1.85;;;;;;;;;;5014730;28;20065;-68
2024/01/01 12:43:59;;;;;;;4.38;1.95;;;;;;;;;;5014723;28;20076;-67
2024/01/01 12:46:26;;;;;;;8.70;1.90;;;;;;;;;;5014846;28;20052;-67
2024/01/01 12:48:52;;;;;;;8.65;2.30;;;;;;;;;;5014838;28;20125;-67
2024/01/01 12:51:20;;;;;;;7.80;1.88;;;;;;;;;;5014720;28;20052;-67
2024/01/01 12:53:46;;;;;;;11.35;1.90;;;;;;;;;;5013716;28;20042;-67
2024/01/01 12:56:12;;;;;;;7.63;1.67;;;;;;;;;;5032414;28;20045;-67
2024/01/01 12:58:41;;;;;;;7.55;2.03;;;;;;;;;;5031541;28;20040;-68
2024/01/01 13:01:10;;;;;;;8.85;2.00;;;;;;;;;;5014565;28;20044;-67
2024/01/01 13:03:36;;;;;;;9.07;1.98;;;;;;;;;;5032281;28;20492;-66
2024/01/01 13:06:02;;;;;;;11.98;2.33;;;;;;;;;;5014486;28;20072;-67
2024/01/01 13:08:28;;;;;;;11.68;2.40;;;;;;;;;;5013617;28;20045;-67
2024/01/01 13:10:54;;;;;;;7.57;1.70;;;;;;;;;;5014937;28;20555;-67
2024/01/01 13:13:20;;;;;;;7.38;1.90;;;;;;;;;;5032504;28;20041;-67
2024/01/01 13:15:47;;;;;;;9.70;2.08;;;;;;;;;;5014165;28;20037;-67
2024/01/01 13:18:13;;;;;;;7.22;2.03;;;;;;;;;;5014050;28;20045;-66
2024/01/01 13:20:41;;;;;;;9.35;1.85;;;;;;;;;;5014350;28;20041;-67
2024/01/01 13:23:08;;;;;;;12.10;2.40;;;;;;;;;;5031547;28;20041;-67
2024/01/01 13:25:34;;;;;;;8.95;1.92;;;;;;;;;;5015261;28;20117;-69
2024/01/01 13:28:00;;;;;;;6.50;1.70;;;;;;;;;;5014759;28;20124;-68
2024/01/01 13:30:26;;;;;;;8.25;1.80;;;;;;;;;;5014216;28;20523;-68
2024/01/01 13:32:52;;;;;;;9.15;1.90;;;;;;;;;;5031363;28;20042;-68
2024/01/01 13:35:19;;;;;;;11.45;2.70;;;;;;;;;;5013763;28;20091;-67
2024/01/01 13:37:45;;;;;;;7.60;1.98;;;;;;;;;;5013471;28;20043;-68
2024/01/01 13:40:11;;;;;;;10.32;1.98;;;;;;;;;;5013552;28;20426;-68
2024/01/01 13:42:37;;;;;;;8.50;1.95;;;;;;;;;;5031993;28;20479;-68
2024/01/01 13:45:04;;;;;;;11.18;2.15;;;;;;;;;;5010230;28;20078;-68
2024/01/01 13:47:30;;;;;;;8.20;2.75;;;;;;;;;;4994215;28;20056;-67
2024/01/01 13:49:56;;;;;;;13.85;2.58;;;;;;;;;;4993492;28;20405;-67
2024/01/01 13:52:22;;;;;;;8.93;2.65;;;;;;;;;;4994645;28;20046;-67
2024/01/01 13:54:48;;;;;;;10.10;2.70;;;;;;;;;;4993757;28;20042;-66
2024/01/01 13:57:14;;;;;;;13.70;5.00;;;;;;;;;;4994349;28;20074;-67
2024/01/01 13:59:40;;;;;;;12.68;3.05;;;;;;;;;;4993774;28;20084;-66
2024/01/01 14:02:07;;;;;;;9.52;4.65;;;;;;;;;;4992914;28;20476;-67
2024/01/01 14:04:33;;;;;;;9.65;5.97;;;;;;;;;;4993567;28;20077;-68
2024/01/01 14:06:59;;;;;;;22.55;17.02;;;;;;;;;;4994173;28;20053;-68
2024/01/01 14:09:25;;;;;;;9.93;3.38;;;;;;;;;;4977759;28;20050;-68
2024/01/01 14:11:51;;;;;;;9.38;2.13;;;;;;;;;;5013055;28;20147;-68
2024/01/01 14:14:17;;;;;;;23.80;17.30;;;;;;;;;;4997725;28;20056;-68
2024/01/01 14:16:44;;;;;;;13.60;3.28;;;;;;;;;;4981648;28;20125;-68
2024/01/01 14:19:10;;;;;;;10.23;2.65;;;;;;;;;;4997782;28;20052;-68
2024/01/01 14:21:36;;;;;;;11.68;4.40;;;;;;;;;;4997737;28;20037;-68
2024/01/01 14:24:02;;;;;;;13.82;3.40;;;;;;;;;;4997881;28;20556;-68
2024/01/01 14:26:28;;;;;;;10.02;3.08;;;;;;;;;;5014905;28;20060;-68
2024/01/01 14:28:53;;;;;;;10.80;2.72;;;;;;;;;;4998108;28;20072;-68
2024/01/01 14:31:19;;;;;;;10.57;2.70;;;;;;;;;;4997486;28;20073;-68
2024/01/01 14:33:46;;;;;;;8.80;3.38;;;;;;;;;;4997794;28;20576;-68